Time;durP1;ratioP1;P1;durP2;ratioP2;P2;SDS_P1;SDS_P2;PMS_P1;PMS_P2;Temp;Humidity;BMP_temperature;BMP_pressure;BME280_temperature;BME280_humidity;BME280_pressure;Samples;Min_cycle;Max_cycle;Signal;HPM_P1;HPM_P2
2022/11/20 17:06:24;;;;;;;;;;;;;;;22.14;53.92;97424.31;5088091;28;19912;-73
2022/11/20 17:08:50;;;;;;;;;;;;;;;22.19;53.97;97426.44;5087973;28;19932;-73
2022/11/20 17:11:18;;;;;;;;;;;;;;;22.17;53.50;97423.94;5088791;28;19966;-69
2022/11/20 17:13:44;;;;;;;;;;;;;;;22.13;53.61;97414.56;5088438;28;19947;-74
2022/11/20 17:18:18;;;;;;;2.13;1.23;;;;;;;22.30;54.27;97417.81;5086649;28;20405;-83
2022/11/20 17:20:51;;;;;;;2.63;1.30;;;;;;;22.18;53.50;97414.00;5086234;28;20211;-76
2022/11/20 17:23:18;;;;;;;3.47;1.13;;;;;;;22.11;53.44;97413.94;5088020;28;20221;-79
2022/11/20 17:25:44;;;;;;;4.43;1.43;;;;;;;22.07;53.31;97412.66;5088887;28;20704;-88
2022/11/20 17:28:11;;;;;;;1.63;1.20;;;;;;;22.04;52.98;97407.69;5087993;28;20223;-87
2022/11/20 17:30:37;;;;;;;2.60;1.33;;;;;;;22.02;53.09;97411.59;5087877;28;20205;-88
2022/11/20 17:33:04;;;;;;;4.83;1.40;;;;;;;21.99;53.25;97412.81;5087213;28;20216;-89
2022/11/20 17:35:32;;;;;;;2.43;1.40;;;;;;;21.98;52.69;97399.53;5088200;28;20694;-88
2022/11/20 17:37:58;;;;;;;3.70;1.20;;;;;;;21.96;53.00;97399.75;5088654;28;20233;-88
2022/11/20 17:40:25;;;;;;;3.27;1.40;;;;;;;21.95;52.69;97403.44;5077731;28;20553;-87
2022/11/20 17:42:51;;;;;;;2.53;0.97;;;;;;;21.93;52.51;97400.13;5068968;28;20264;-88
2022/11/20 17:45:18;;;;;;;1.67;1.00;;;;;;;21.91;52.53;97390.59;5070249;28;20204;-89
2022/11/20 17:47:45;;;;;;;1.40;1.00;;;;;;;21.92;52.62;97393.09;5068073;28;20224;-89
2022/11/20 17:50:12;;;;;;;1.53;1.10;;;;;;;21.91;52.41;97395.97;5071017;28;20256;-88
2022/11/20 17:52:40;;;;;;;2.87;1.20;;;;;;;21.90;52.49;97389.75;5070958;28;20234;-87
2022/11/20 17:55:07;;;;;;;1.47;1.07;;;;;;;21.90;52.42;97388.91;5070639;28;20211;-89
2022/11/20 17:57:51;;;;;;;1.37;1.10;;;;;;;21.88;52.52;97386.41;5068183;28;20242;-88
2022/11/20 18:00:18;;;;;;;1.83;1.17;;;;;;;21.86;52.32;97385.78;5068632;28;20238;-86
2022/11/20 18:02:45;;;;;;;2.20;1.00;;;;;;;21.86;52.45;97372.34;5066331;28;20223;-87
2022/11/20 18:05:12;;;;;;;1.20;1.10;;;;;;;21.86;52.40;97366.13;5068203;28;20581;-89
2022/11/20 18:07:40;;;;;;;1.37;0.97;;;;;;;21.84;52.25;97363.63;5067605;28;20237;-90
2022/11/20 18:10:08;;;;;;;1.40;1.23;;;;;;;21.84;52.41;97360.09;5067221;28;20268;-87
2022/11/20 18:12:34;;;;;;;1.83;1.10;;;;;;;21.85;52.24;97359.91;5068253;28;20214;-88
2022/11/20 18:15:01;;;;;;;2.50;1.10;;;;;;;21.86;52.34;97366.13;5067144;28;20233;-88
2022/11/20 18:17:27;;;;;;;1.27;1.17;;;;;;;21.84;52.37;97360.09;5081111;28;20260;-89
2022/11/20 18:19:54;;;;;;;1.60;1.00;;;;;;;21.83;52.30;97366.50;5087159;28;20210;-88
2022/11/20 18:22:21;;;;;;;2.23;1.10;;;;;;;21.82;52.29;97354.91;5087128;28;20717;-88
2022/11/20 18:24:49;;;;;;;1.10;1.00;;;;;;;21.84;52.22;97358.25;5087031;28;20668;-88
2022/11/20 18:27:18;;;;;;;1.40;1.00;;;;;;;21.82;52.21;97351.41;5087593;28;20223;-89
2022/11/20 18:29:47;;;;;;;1.63;1.00;;;;;;;21.82;52.18;97346.84;5073155;28;20207;-88
2022/11/20 18:32:14;;;;;;;1.93;1.00;;;;;;;21.82;52.34;97346.84;5073874;28;20219;-87
2022/11/20 18:34:40;;;;;;;1.50;1.17;;;;;;;21.82;52.09;97335.25;5074120;28;20218;-88
2022/11/20 18:37:08;;;;;;;0.90;0.90;;;;;;;21.83;52.07;97329.66;5073412;28;20233;-88
2022/11/20 18:39:35;;;;;;;1.30;0.97;;;;;;;21.82;52.08;97316.44;5078157;28;20202;-89
2022/11/20 18:44:53;;;;;;;1.20;1.00;;;;;;;21.82;52.15;97328.00;5094554;28;20698;-88
2022/11/20 18:47:22;;;;;;;1.10;0.90;;;;;;;21.82;52.07;97332.56;5094090;28;20254;-88
2022/11/20 18:49:51;;;;;;;1.43;0.90;;;;;;;21.82;52.16;97337.97;5093992;28;20692;-82
2022/11/20 18:53:45;;;;;;;2.07;1.07;;;;;;;20.07;56.25;97369.72;5109368;27;20497;-76
2022/11/20 18:56:11;;;;;;;1.13;1.00;;;;;;;19.70;57.96;97366.19;5109169;28;20222;-75
2022/11/20 18:58:39;;;;;;;2.80;1.30;;;;;;;19.61;59.01;97365.41;5109386;28;20675;-75
2022/11/20 19:01:06;;;;;;;1.13;1.00;;;;;;;19.45;59.25;97354.81;5108880;28;20217;-75
2022/11/20 19:03:33;;;;;;;1.13;0.93;;;;;;;19.38;59.34;97364.59;5109332;28;20217;-75
2022/11/20 19:06:00;;;;;;;1.90;1.07;;;;;;;19.37;59.69;97365.59;5108994;28;20206;-76
2022/11/20 19:08:26;;;;;;;1.60;0.90;;;;;;;19.33;60.16;97353.56;5109069;28;20821;-76
2022/11/20 19:10:54;;;;;;;1.63;0.90;;;;;;;19.33;59.58;97342.84;5109068;28;20217;-76
2022/11/20 19:13:21;;;;;;;1.30;0.90;;;;;;;19.36;60.60;97363.94;5108896;28;20549;-75
2022/11/20 19:15:47;;;;;;;1.30;0.90;;;;;;;19.34;60.41;97352.56;5109229;28;20210;-76
2022/11/20 19:18:14;;;;;;;1.23;0.90;;;;;;;19.32;60.16;97351.91;5122978;22;20229;-85
2022/11/20 19:20:40;;;;;;;2.00;0.90;;;;;;;19.34;59.65;97344.53;5108705;28;20233;-86
2022/11/20 19:23:07;;;;;;;1.53;0.90;;;;;;;19.34;60.21;97355.25;5108385;28;20208;-86
2022/11/20 19:25:33;;;;;;;0.80;0.80;;;;;;;19.32;60.35;97351.91;5109149;28;20296;-83
2022/11/20 19:28:01;;;;;;;1.33;1.00;;;;;;;19.30;60.44;97348.56;5108898;28;20226;-85
2022/11/20 19:30:28;;;;;;;1.10;1.00;;;;;;;19.37;60.33;97337.97;5108731;28;20275;-87
2022/11/20 19:32:56;;;;;;;1.80;0.90;;;;;;;19.32;60.60;97346.53;5108936;28;20234;-86
2022/11/20 19:35:24;;;;;;;1.43;1.00;;;;;;;19.33;60.37;97342.84;5108543;28;20324;-84
2022/11/20 19:37:51;;;;;;;1.00;0.90;;;;;;;19.33;60.64;97344.72;5108496;28;20226;-84
2022/11/20 19:40:18;;;;;;;1.27;0.90;;;;;;;19.37;60.21;97344.16;5108295;28;20210;-84
2022/11/20 19:42:44;;;;;;;1.43;1.00;;;;;;;19.35;60.38;97335.47;5108686;28;20212;-84
2022/11/20 19:45:12;;;;;;;1.20;0.90;;;;;;;19.33;60.72;97337.50;5108500;28;20206;-84
2022/11/20 19:47:39;;;;;;;2.27;0.90;;;;;;;19.31;59.97;97334.16;5108454;28;20233;-84
2022/11/20 19:50:06;;;;;;;1.07;0.90;;;;;;;19.26;60.23;97336.53;5108099;28;20588;-84
2022/11/20 19:52:33;;;;;;;1.27;1.00;;;;;;;19.37;60.59;97328.09;5106471;28;20463;-84
2022/11/20 19:55:00;;;;;;;3.07;1.10;;;;;;;19.45;60.61;97330.69;5106979;28;20289;-82
2022/11/20 19:57:26;;;;;;;2.00;1.00;;;;;;;19.44;61.00;97334.38;5107452;28;20230;-92
2022/11/20 19:59:54;;;;;;;2.00;1.07;;;;;;;19.46;60.60;97332.38;5107449;28;20210;-85
2022/11/20 20:02:22;;;;;;;1.30;0.90;;;;;;;19.50;60.89;97330.19;5103255;28;20732;-85
2022/11/20 20:04:48;;;;;;;1.48;0.80;;;;;;;19.48;60.39;97332.19;5076221;28;20434;-83
2022/11/20 20:07:15;;;;;;;1.23;1.00;;;;;;;19.46;60.66;97331.53;5073946;28;20231;-83
2022/11/20 20:09:41;;;;;;;1.83;0.90;;;;;;;19.42;60.03;97320.34;5072816;28;20222;-83
2022/11/20 20:12:08;;;;;;;1.27;0.93;;;;;;;19.47;60.07;97323.31;5074143;28;20231;-83
2022/11/20 20:14:34;;;;;;;1.93;0.73;;;;;;;19.47;60.41;97334.03;5073963;28;20673;-83
2022/11/20 20:17:01;;;;;;;0.70;0.70;;;;;;;19.41;60.26;97323.19;5074044;28;20232;-83
2022/11/20 20:19:29;;;;;;;0.80;0.70;;;;;;;19.37;60.87;97322.72;5073626;28;20208;-83
2022/11/20 20:21:55;;;;;;;1.37;1.03;;;;;;;19.38;60.61;97335.09;5073954;28;20691;-83
2022/11/20 20:24:22;;;;;;;1.27;0.90;;;;;;;19.36;60.41;97326.44;5073849;28;20218;-83
2022/11/20 20:26:48;;;;;;;0.83;0.83;;;;;;;19.37;59.73;97330.78;5074020;28;20210;-83
2022/11/20 20:29:15;;;;;;;0.97;0.80;;;;;;;19.35;60.35;97330.13;5073778;28;20215;-83
2022/11/20 20:31:41;;;;;;;0.90;0.80;;;;;;;19.33;60.76;97326.78;5073616;28;20215;-83
2022/11/20 20:34:08;;;;;;;0.60;0.60;;;;;;;19.33;60.42;97316.06;5073868;28;20207;-83
2022/11/20 20:36:35;;;;;;;0.77;0.60;;;;;;;19.30;60.61;97324.47;5073473;28;20212;-83
2022/11/20 20:39:02;;;;;;;1.87;0.80;;;;;;;19.26;60.14;97319.66;5073557;28;20318;-83
2022/11/20 20:41:29;;;;;;;1.03;0.70;;;;;;;19.37;60.47;97324.56;5073349;28;20214;-83
2022/11/20 20:46:40;;;;;;;0.70;0.70;;;;;;;19.31;60.56;97326.13;5073650;28;20342;-83
2022/11/20 20:49:07;;;;;;;0.70;0.70;;;;;;;19.39;60.56;97330.59;5073389;28;20211;-84
2022/11/20 20:51:33;;;;;;;1.07;0.60;;;;;;;19.29;58.94;97322.81;5073389;28;20203;-84
2022/11/20 20:54:02;;;;;;;1.20;0.67;;;;;;;19.30;60.44;97332.50;5073505;28;20238;-84
2022/11/20 20:56:28;;;;;;;1.00;0.80;;;;;;;19.31;60.53;97339.53;5073412;28;20207;-84
2022/11/20 20:58:55;;;;;;;1.00;0.90;;;;;;;19.39;60.44;97339.44;5073146;28;20246;-84
2022/11/20 21:01:21;;;;;;;1.63;0.70;;;;;;;19.39;60.03;97342.13;5073217;28;20216;-84
2022/11/20 21:03:48;;;;;;;0.90;0.70;;;;;;;19.33;60.03;97332.13;5073523;28;20206;-84
2022/11/20 21:06:14;;;;;;;1.77;0.80;;;;;;;19.35;60.27;97340.00;5073233;28;20230;-84
2022/11/20 21:08:41;;;;;;;0.73;0.73;;;;;;;19.33;60.16;97340.16;5072773;28;20241;-84
2022/11/20 21:11:10;;;;;;;0.70;0.70;;;;;;;19.37;60.04;97335.28;5072931;28;20212;-83
2022/11/20 21:13:38;;;;;;;0.63;0.60;;;;;;;19.33;59.66;97337.50;5072834;28;20596;-82
2022/11/20 21:16:05;;;;;;;1.53;0.67;;;;;;;19.30;60.09;97340.53;5072225;28;20207;-82
2022/11/20 21:18:33;;;;;;;1.10;0.80;;;;;;;19.33;60.16;97352.75;5072784;28;20243;-82
2022/11/20 21:23:46;;;;;;;0.60;0.60;;;;;;;19.25;60.30;97337.56;5072927;28;20206;-82
2022/11/20 21:26:14;;;;;;;0.73;0.73;;;;;;;19.30;60.24;97340.53;5072820;28;20207;-82
2022/11/20 21:28:41;;;;;;;0.70;0.60;;;;;;;19.31;59.53;97336.00;5072909;28;20583;-82
2022/11/20 21:31:10;;;;;;;0.90;0.73;;;;;;;19.34;59.77;97343.69;5072507;28;20669;-82
2022/11/20 21:33:38;;;;;;;0.90;0.70;;;;;;;19.37;60.00;97337.97;5072605;28;20237;-82
2022/11/20 21:36:06;;;;;;;0.97;0.87;;;;;;;19.39;59.70;97339.44;5072528;28;20283;-82
2022/11/20 21:38:32;;;;;;;0.70;0.60;;;;;;;19.36;60.07;97337.16;5072394;28;20228;-82
2022/11/20 21:41:00;;;;;;;0.73;0.70;;;;;;;19.33;60.07;97332.13;5072303;28;20207;-82
2022/11/20 21:43:27;;;;;;;2.17;0.90;;;;;;;19.29;59.85;97338.03;5071744;28;20581;-82
2022/11/20 21:45:59;;;;;;;0.77;0.60;;;;;;;19.29;59.61;97333.53;5072448;28;20692;-82
2022/11/20 21:48:28;;;;;;;0.70;0.57;;;;;;;19.32;59.62;97340.38;5072257;28;20240;-82
2022/11/20 21:50:54;;;;;;;0.80;0.70;;;;;;;19.26;59.44;97335.72;5072020;28;20305;-82
2022/11/20 21:53:21;;;;;;;0.60;0.60;;;;;;;19.27;59.89;97332.84;5072028;28;20239;-82
2022/11/20 21:55:53;;;;;;;0.50;0.50;;;;;;;19.28;60.41;97341.72;5072395;28;20203;-82
2022/11/20 21:58:19;;;;;;;0.60;0.60;;;;;;;19.30;60.27;97332.50;5072355;28;20232;-82
2022/11/20 22:00:47;;;;;;;0.73;0.67;;;;;;;19.32;59.71;97325.09;5071928;28;20211;-82
2022/11/20 22:03:14;;;;;;;0.60;0.60;;;;;;;19.22;59.63;97327.22;5071945;28;20700;-82
2022/11/20 22:05:40;;;;;;;0.60;0.50;;;;;;;19.25;59.88;97329.53;5071918;28;20222;-82
2022/11/20 22:08:07;;;;;;;1.10;0.70;;;;;;;19.27;59.57;97334.72;5071858;28;20701;-83
2022/11/20 22:10:33;;;;;;;0.70;0.70;;;;;;;19.30;59.88;97326.28;5071846;28;20211;-82
2022/11/20 22:15:40;;;;;;;0.97;0.70;;;;;;;19.27;59.94;97338.19;5070891;28;20234;-82
2022/11/20 22:18:16;;;;;;;1.03;0.73;;;;;;;19.31;59.63;97334.16;5071639;28;20240;-82
2022/11/20 22:20:43;;;;;;;0.90;0.70;;;;;;;19.25;59.66;97337.56;5071657;28;20700;-82
2022/11/20 22:23:09;;;;;;;0.67;0.60;;;;;;;19.30;60.10;97340.53;5071840;28;20203;-82
2022/11/20 22:25:36;;;;;;;0.80;0.70;;;;;;;19.28;59.85;97331.84;5071849;28;20207;-82
2022/11/20 22:28:02;;;;;;;1.40;0.60;;;;;;;19.34;59.50;97333.81;5071424;28;20237;-82
2022/11/20 22:30:29;;;;;;;0.83;0.67;;;;;;;19.25;58.93;97337.56;5071421;28;20594;-82
2022/11/20 22:32:55;;;;;;;0.60;0.50;;;;;;;19.22;59.99;97345.97;5071644;28;20232;-82
2022/11/20 22:35:23;;;;;;;0.90;0.70;;;;;;;19.25;59.50;97352.78;5071514;28;20211;-82
2022/11/20 22:37:50;;;;;;;0.60;0.60;;;;;;;19.25;59.79;97356.31;5071640;28;20235;-82
2022/11/20 22:40:16;;;;;;;0.50;0.50;;;;;;;19.24;59.50;97354.66;5071392;28;20214;-83
2022/11/20 22:42:44;;;;;;;0.60;0.60;;;;;;;19.27;59.64;97354.28;5071439;28;20210;-83
2022/11/20 22:45:12;;;;;;;1.00;0.90;;;;;;;19.29;59.75;97346.06;5071348;28;20700;-83
2022/11/20 22:47:38;;;;;;;0.97;0.60;;;;;;;19.25;59.33;97340.25;5071602;28;20318;-83
2022/11/20 22:50:06;;;;;;;1.20;0.63;;;;;;;19.28;59.74;97342.56;5071369;28;20208;-83
2022/11/20 22:52:34;;;;;;;0.60;0.60;;;;;;;19.29;59.62;97341.56;5071165;28;20208;-83
2022/11/20 22:55:00;;;;;;;0.70;0.60;;;;;;;19.26;59.92;97343.75;5071491;28;20585;-82
2022/11/20 22:57:27;;;;;;;0.60;0.60;;;;;;;19.25;59.89;97339.38;5071365;28;20234;-83
2022/11/20 22:59:53;;;;;;;0.70;0.70;;;;;;;19.18;59.81;97349.13;5071125;28;20211;-83
2022/11/20 23:02:20;;;;;;;0.70;0.70;;;;;;;19.24;59.94;97343.09;5071203;28;20204;-82
2022/11/20 23:04:49;;;;;;;0.70;0.63;;;;;;;19.19;59.51;97340.09;5071267;28;20210;-82
2022/11/20 23:07:15;;;;;;;0.50;0.50;;;;;;;19.22;59.79;97340.63;5071323;28;20229;-83
2022/11/20 23:09:43;;;;;;;0.70;0.50;;;;;;;19.20;59.95;97336.41;5071119;28;20680;-83
2022/11/20 23:12:09;;;;;;;0.70;0.60;;;;;;;19.25;59.73;97347.44;5071145;28;20210;-82
2022/11/20 23:14:36;;;;;;;0.63;0.53;;;;;;;19.22;60.05;97340.63;5071426;28;20231;-82
2022/11/20 23:17:02;;;;;;;0.50;0.50;;;;;;;19.28;59.82;97339.06;5071047;28;20238;-83
2022/11/20 23:19:29;;;;;;;0.60;0.60;;;;;;;19.24;59.90;97343.09;5071233;28;20218;-82
2022/11/20 23:21:55;;;;;;;1.20;0.80;;;;;;;19.27;59.62;97342.75;5071172;28;20207;-83
2022/11/20 23:24:22;;;;;;;0.60;0.57;;;;;;;19.27;59.75;97343.56;5071323;28;20603;-83
2022/11/20 23:26:50;;;;;;;0.70;0.70;;;;;;;19.26;59.66;97341.09;5071005;28;20211;-83
2022/11/20 23:29:16;;;;;;;0.50;0.50;;;;;;;19.25;59.75;97340.25;5071140;28;20210;-82
2022/11/20 23:31:43;;;;;;;0.50;0.50;;;;;;;19.26;59.81;97341.09;5070969;28;20219;-82
2022/11/20 23:34:09;;;;;;;0.50;0.50;;;;;;;19.22;59.11;97334.41;5071127;28;20227;-82
2022/11/20 23:36:36;;;;;;;1.20;0.50;;;;;;;19.25;59.64;97339.38;5071053;28;20207;-82
2022/11/20 23:39:02;;;;;;;0.57;0.50;;;;;;;19.18;59.48;97339.25;5072107;28;20227;-82
2022/11/20 23:41:29;;;;;;;0.63;0.40;;;;;;;19.21;59.39;97340.78;5074525;28;20218;-83
2022/11/20 23:43:57;;;;;;;0.80;0.60;;;;;;;19.22;59.82;97345.97;5074710;28;20661;-82
2022/11/20 23:46:23;;;;;;;0.87;0.47;;;;;;;19.29;59.50;97341.56;5074548;28;20207;-82
2022/11/20 23:48:50;;;;;;;0.50;0.50;;;;;;;19.22;58.52;97335.25;5074661;28;20633;-82
2022/11/20 23:51:16;;;;;;;0.40;0.40;;;;;;;19.24;59.23;97354.66;5074445;28;20207;-82
2022/11/20 23:53:43;;;;;;;0.50;0.50;;;;;;;19.22;59.80;97356.69;5074463;28;20555;-82
2022/11/20 23:56:13;;;;;;;0.40;0.40;;;;;;;19.26;59.57;97362.53;5074495;28;20215;-82
2022/11/20 23:58:39;;;;;;;0.80;0.47;;;;;;;19.28;59.68;97366.69;5074648;28;20314;-83
